Time;durP1;ratioP1;P1;durP2;ratioP2;P2;SDS_P1;SDS_P2;PMS_P1;PMS_P2;Temp;Humidity;BMP_temperature;BMP_pressure;BME280_temperature;BME280_humidity;BME280_pressure;Samples;Min_cycle;Max_cycle;Signal;HPM_P1;HPM_P2
2021/12/21 00:02:11;;;;;;;28.42;15.05;;;;;;;;;;5095416;28;20407;-69
2021/12/21 00:04:37;;;;;;;45.25;24.15;;;;;;;;;;5095941;28;20024;-69
2021/12/21 00:07:05;;;;;;;43.97;23.63;;;;;;;;;;5094431;28;20024;-69
2021/12/21 00:09:31;;;;;;;33.33;16.42;;;;;;;;;;5094223;28;20479;-69
2021/12/21 00:11:59;;;;;;;25.27;12.48;;;;;;;;;;5095653;28;20476;-69
2021/12/21 00:19:54;;;;;;;29.83;15.27;;;;;;;;;;5095570;28;20439;-69
2021/12/21 00:25:05;;;;;;;32.67;16.23;;;;;;;;;;5095037;28;20070;-69
2021/12/21 00:27:32;;;;;;;26.90;14.00;;;;;;;;;;5095347;28;20024;-69
2021/12/21 00:29:58;;;;;;;32.50;17.17;;;;;;;;;;5095327;28;20027;-69
2021/12/21 00:32:24;;;;;;;28.40;16.05;;;;;;;;;;5094921;28;20464;-69
2021/12/21 00:34:50;;;;;;;23.25;11.27;;;;;;;;;;5095244;28;20032;-69
2021/12/21 00:37:18;;;;;;;32.30;15.25;;;;;;;;;;5093488;28;20388;-69
2021/12/21 00:39:44;;;;;;;64.75;31.13;;;;;;;;;;5095059;28;20020;-69
2021/12/21 00:42:10;;;;;;;58.13;28.27;;;;;;;;;;5094963;28;20056;-69
2021/12/21 00:44:37;;;;;;;47.08;24.17;;;;;;;;;;5094856;28;20455;-69
2021/12/21 00:47:03;;;;;;;46.65;21.27;;;;;;;;;;5094925;28;20032;-69
2021/12/21 00:49:30;;;;;;;40.13;16.27;;;;;;;;;;5094997;28;20027;-69
2021/12/21 00:51:56;;;;;;;27.73;13.43;;;;;;;;;;5094750;28;20437;-69
2021/12/21 00:54:22;;;;;;;23.70;11.98;;;;;;;;;;5094852;28;20091;-69
2021/12/21 00:56:48;;;;;;;19.90;10.15;;;;;;;;;;5094808;28;20094;-69
2021/12/21 00:59:15;;;;;;;16.15;8.45;;;;;;;;;;5094374;28;20468;-69
2021/12/21 01:01:42;;;;;;;13.43;6.55;;;;;;;;;;5094602;28;20032;-69
2021/12/21 01:04:16;;;;;;;14.32;6.95;;;;;;;;;;5094648;28;20016;-69
2021/12/21 01:06:57;;;;;;;16.98;8.57;;;;;;;;;;5093386;28;20388;-69
2021/12/21 01:12:13;;;;;;;16.52;7.07;;;;;;;;;;5095059;28;20065;-70
2021/12/21 01:15:44;;;;;;;18.10;7.38;;;;;;;;;;5094110;28;20016;-69
2021/12/21 01:17:32;;;;;;;12.65;6.55;;;;;;;;;;5090358;28;20039;-69
2021/12/21 01:20:23;;;;;;;14.07;6.95;;;;;;;;;;5094094;28;20024;-69
2021/12/21 01:23:18;;;;;;;12.93;5.60;;;;;;;;;;5093983;28;20056;-69
2021/12/21 01:28:17;;;;;;;12.65;5.95;;;;;;;;;;5093718;28;20020;-69
2021/12/21 01:30:56;;;;;;;11.50;5.43;;;;;;;;;;5094552;28;20024;-69
2021/12/21 01:36:23;;;;;;;12.25;5.13;;;;;;;;;;5094112;28;20024;-69
2021/12/21 01:38:59;;;;;;;10.50;5.32;;;;;;;;;;5094009;28;20101;-69
2021/12/21 01:41:40;;;;;;;7.72;4.65;;;;;;;;;;5093693;28;20380;-69
2021/12/21 01:44:26;;;;;;;15.50;5.80;;;;;;;;;;5093965;28;20020;-69
2021/12/21 01:49:41;;;;;;;18.40;7.65;;;;;;;;;;5093521;28;20050;-69
2021/12/21 01:52:08;;;;;;;22.15;9.00;;;;;;;;;;5093716;28;20043;-69
2021/12/21 01:54:35;;;;;;;20.00;9.43;;;;;;;;;;5093936;28;20098;-70
2021/12/21 01:57:02;;;;;;;16.25;8.10;;;;;;;;;;5093653;28;20054;-70
2021/12/21 01:59:28;;;;;;;19.40;9.40;;;;;;;;;;5093981;28;20032;-69
2021/12/21 02:01:54;;;;;;;11.80;5.82;;;;;;;;;;5093173;28;20578;-69
2021/12/21 02:04:20;;;;;;;12.85;6.93;;;;;;;;;;5094004;28;20446;-69
2021/12/21 02:06:49;;;;;;;15.65;7.90;;;;;;;;;;5093977;28;20099;-69
2021/12/21 02:09:16;;;;;;;14.57;6.53;;;;;;;;;;5093169;28;20016;-69
2021/12/21 02:11:42;;;;;;;13.38;5.40;;;;;;;;;;5093943;28;20020;-69
2021/12/21 02:14:10;;;;;;;16.60;7.03;;;;;;;;;;5093543;28;20031;-69
2021/12/21 02:16:48;;;;;;;20.55;9.43;;;;;;;;;;5092913;28;20098;-69
2021/12/21 02:19:22;;;;;;;15.50;6.85;;;;;;;;;;5093640;28;20050;-70
2021/12/21 02:21:53;;;;;;;11.52;5.07;;;;;;;;;;5093304;28;20044;-69
2021/12/21 02:24:25;;;;;;;10.63;5.57;;;;;;;;;;5093117;28;20101;-70
2021/12/21 02:27:06;;;;;;;8.88;4.75;;;;;;;;;;5093506;28;20099;-69
2021/12/21 02:29:35;;;;;;;9.55;4.45;;;;;;;;;;5093649;28;20029;-70
2021/12/21 02:32:01;;;;;;;12.45;5.07;;;;;;;;;;5092949;28;20499;-70
2021/12/21 02:34:28;;;;;;;11.35;5.32;;;;;;;;;;5093239;28;20031;-69
2021/12/21 02:36:55;;;;;;;8.70;4.32;;;;;;;;;;5092928;28;20508;-69
2021/12/21 02:39:22;;;;;;;9.75;4.43;;;;;;;;;;5093316;28;20902;-69
2021/12/21 02:41:48;;;;;;;13.25;5.75;;;;;;;;;;5093169;28;20032;-69
2021/12/21 02:44:15;;;;;;;14.90;6.35;;;;;;;;;;5092872;28;20020;-69
2021/12/21 02:46:41;;;;;;;12.52;6.03;;;;;;;;;;5093151;28;20027;-69
2021/12/21 02:49:08;;;;;;;12.95;6.45;;;;;;;;;;5093189;28;20025;-69
2021/12/21 02:51:37;;;;;;;19.60;7.13;;;;;;;;;;5092710;28;20036;-69
2021/12/21 02:54:03;;;;;;;12.32;5.80;;;;;;;;;;5091818;28;20040;-69
2021/12/21 02:56:29;;;;;;;10.88;5.60;;;;;;;;;;5093358;28;20529;-69
2021/12/21 02:58:56;;;;;;;13.93;4.72;;;;;;;;;;5091393;28;20459;-69
2021/12/21 03:01:22;;;;;;;12.45;4.75;;;;;;;;;;5093215;28;20085;-69
2021/12/21 03:03:48;;;;;;;10.73;5.22;;;;;;;;;;5093199;28;20103;-69
2021/12/21 03:09:10;;;;;;;14.15;6.03;;;;;;;;;;5081608;28;20460;-69
2021/12/21 03:11:48;;;;;;;14.30;8.38;;;;;;;;;;5093269;28;20016;-69
2021/12/21 03:14:14;;;;;;;19.92;9.75;;;;;;;;;;5092492;28;20066;-69
2021/12/21 03:16:40;;;;;;;22.85;10.55;;;;;;;;;;5092878;28;20016;-69
2021/12/21 03:19:07;;;;;;;14.25;7.32;;;;;;;;;;5092444;28;20020;-70
2021/12/21 03:21:34;;;;;;;15.40;6.93;;;;;;;;;;5092495;28;20538;-70
2021/12/21 03:24:01;;;;;;;13.73;5.88;;;;;;;;;;5093090;28;20040;-69
2021/12/21 03:26:28;;;;;;;18.50;7.25;;;;;;;;;;5092380;28;20027;-69
2021/12/21 03:28:54;;;;;;;16.95;7.70;;;;;;;;;;5093436;28;20020;-69
2021/12/21 03:31:21;;;;;;;16.15;6.85;;;;;;;;;;5095176;28;20106;-69
2021/12/21 03:33:47;;;;;;;9.52;5.13;;;;;;;;;;5095968;28;20034;-69
2021/12/21 03:36:16;;;;;;;9.95;5.13;;;;;;;;;;5096376;28;20383;-69
2021/12/21 03:38:47;;;;;;;8.55;4.43;;;;;;;;;;5096343;28;20028;-70
2021/12/21 03:41:16;;;;;;;12.73;5.63;;;;;;;;;;5095936;28;20016;-69
2021/12/21 03:43:42;;;;;;;11.98;5.88;;;;;;;;;;5096369;28;20412;-69
2021/12/21 03:46:11;;;;;;;14.00;6.47;;;;;;;;;;5096514;28;20099;-70
2021/12/21 03:48:40;;;;;;;16.05;7.75;;;;;;;;;;5095828;28;20095;-69
2021/12/21 03:51:06;;;;;;;14.40;7.97;;;;;;;;;;5096117;28;20016;-69
2021/12/21 03:53:33;;;;;;;15.75;7.38;;;;;;;;;;5096055;28;20028;-69
2021/12/21 03:56:16;;;;;;;18.88;9.18;;;;;;;;;;5095596;28;20039;-69
2021/12/21 03:58:43;;;;;;;;;;;;;;;;;;5096366;28;20027;-69
2021/12/21 04:01:09;;;;;;;15.38;6.40;;;;;;;;;;5095764;28;19908;-69
2021/12/21 04:03:35;;;;;;;15.25;6.85;;;;;;;;;;5095833;28;20028;-70
2021/12/21 04:06:01;;;;;;;12.95;6.38;;;;;;;;;;5096019;28;20028;-69
2021/12/21 04:08:28;;;;;;;16.67;7.30;;;;;;;;;;5095352;28;20027;-70
2021/12/21 04:10:54;;;;;;;19.55;9.15;;;;;;;;;;5095729;28;20051;-69
2021/12/21 04:13:20;;;;;;;20.08;8.52;;;;;;;;;;5095654;28;20033;-69
2021/12/21 04:15:50;;;;;;;15.93;7.03;;;;;;;;;;5095253;28;20058;-69
2021/12/21 04:18:19;;;;;;;12.73;6.05;;;;;;;;;;5094301;28;20020;-69
2021/12/21 04:20:46;;;;;;;19.42;7.25;;;;;;;;;;5095574;28;20487;-69
2021/12/21 04:23:12;;;;;;;19.35;8.65;;;;;;;;;;5095032;28;20036;-69
2021/12/21 04:25:38;;;;;;;17.30;8.65;;;;;;;;;;5095503;28;20051;-69
2021/12/21 04:28:05;;;;;;;18.15;9.35;;;;;;;;;;5095571;28;20056;-69
2021/12/21 04:30:31;;;;;;;21.48;10.18;;;;;;;;;;5094821;28;20028;-70
2021/12/21 04:32:57;;;;;;;15.35;8.55;;;;;;;;;;5095248;28;20024;-70
2021/12/21 04:35:24;;;;;;;15.40;7.20;;;;;;;;;;5095311;28;20028;-69
2021/12/21 04:37:56;;;;;;;15.25;7.25;;;;;;;;;;5094806;28;20032;-69
2021/12/21 04:40:35;;;;;;;13.20;6.32;;;;;;;;;;5095291;28;20580;-69
2021/12/21 04:43:01;;;;;;;12.00;5.43;;;;;;;;;;5095232;28;20044;-69
2021/12/21 04:45:28;;;;;;;14.10;5.68;;;;;;;;;;5094609;28;20031;-69
2021/12/21 04:47:54;;;;;;;12.52;7.68;;;;;;;;;;5094986;28;20024;-69
2021/12/21 04:50:20;;;;;;;11.20;5.70;;;;;;;;;;5093664;28;20059;-69
2021/12/21 04:52:46;;;;;;;12.43;5.82;;;;;;;;;;5094440;28;20020;-70
2021/12/21 04:55:12;;;;;;;14.30;6.57;;;;;;;;;;5094804;28;20031;-69
2021/12/21 04:57:40;;;;;;;16.70;7.95;;;;;;;;;;5094416;28;20024;-69
2021/12/21 05:00:07;;;;;;;16.10;7.35;;;;;;;;;;5094788;28;20042;-69
2021/12/21 05:02:34;;;;;;;11.52;5.80;;;;;;;;;;5094558;28;20035;-69
2021/12/21 05:05:00;;;;;;;12.18;5.07;;;;;;;;;;5094310;28;20027;-69
2021/12/21 05:07:29;;;;;;;10.82;5.43;;;;;;;;;;5094553;28;20047;-69
2021/12/21 05:09:57;;;;;;;12.65;5.75;;;;;;;;;;5094504;28;20099;-67
2021/12/21 05:12:24;;;;;;;14.00;6.40;;;;;;;;;;5094449;28;20043;-68
2021/12/21 05:14:50;;;;;;;12.32;7.00;;;;;;;;;;5094435;28;20027;-63
2021/12/21 05:17:17;;;;;;;13.38;6.82;;;;;;;;;;5093080;28;20031;-63
2021/12/21 05:19:43;;;;;;;10.18;5.10;;;;;;;;;;5094194;28;20111;-64
2021/12/21 05:22:10;;;;;;;10.30;4.43;;;;;;;;;;5093990;28;20048;-64
2021/12/21 05:24:36;;;;;;;9.45;4.70;;;;;;;;;;5094229;28;20020;-62
2021/12/21 05:27:02;;;;;;;12.43;6.03;;;;;;;;;;5093779;28;20028;-62
2021/12/21 05:29:31;;;;;;;20.73;10.30;;;;;;;;;;5094175;28;20020;-62
2021/12/21 05:31:59;;;;;;;20.85;11.20;;;;;;;;;;5092803;28;20020;-62
2021/12/21 05:34:25;;;;;;;17.25;9.02;;;;;;;;;;5093835;28;20128;-62
2021/12/21 05:36:51;;;;;;;17.05;8.80;;;;;;;;;;5094064;28;20055;-62
2021/12/21 05:39:22;;;;;;;23.90;11.25;;;;;;;;;;5093996;28;20024;-62
2021/12/21 05:41:53;;;;;;;21.75;11.07;;;;;;;;;;5093583;28;20031;-62
2021/12/21 05:44:20;;;;;;;24.67;9.38;;;;;;;;;;5094064;28;20020;-62
2021/12/21 05:46:47;;;;;;;19.35;9.85;;;;;;;;;;5093764;28;20024;-62
2021/12/21 05:49:13;;;;;;;28.88;15.90;;;;;;;;;;5094139;28;20114;-62
2021/12/21 05:51:39;;;;;;;20.73;11.13;;;;;;;;;;5093354;28;20032;-63
2021/12/21 05:54:06;;;;;;;18.70;10.23;;;;;;;;;;5093493;28;20024;-63
2021/12/21 05:56:32;;;;;;;17.30;9.13;;;;;;;;;;5092474;28;20150;-62
2021/12/21 05:59:00;;;;;;;14.52;7.05;;;;;;;;;;5093707;28;20056;-62
2021/12/21 06:01:26;;;;;;;9.63;5.75;;;;;;;;;;5093534;28;20016;-62
2021/12/21 06:03:52;;;;;;;10.88;5.72;;;;;;;;;;5093608;28;20199;-63
2021/12/21 06:06:19;;;;;;;12.75;7.03;;;;;;;;;;5092370;28;20024;-63
2021/12/21 06:08:47;;;;;;;11.52;6.22;;;;;;;;;;5093120;28;20020;-62
2021/12/21 06:11:14;;;;;;;13.45;6.45;;;;;;;;;;5093600;28;20388;-62
2021/12/21 06:22:44;;;;;;;12.07;7.18;;;;;;;;;;5088794;28;20027;-62
2021/12/21 06:27:30;;;;;;;21.08;9.43;;;;;;;;;;5082994;28;20044;-66
2021/12/21 06:29:56;;;;;;;17.90;9.50;;;;;;;;;;5083545;28;20473;-66
2021/12/21 06:32:23;;;;;;;17.73;9.13;;;;;;;;;;5089435;28;20040;-70
2021/12/21 06:34:49;;;;;;;24.23;13.93;;;;;;;;;;5074323;28;20021;-67
2021/12/21 06:37:15;;;;;;;33.42;16.98;;;;;;;;;;5072585;28;20086;-67
2021/12/21 06:39:42;;;;;;;29.55;15.38;;;;;;;;;;5072808;28;20024;-67
2021/12/21 06:42:08;;;;;;;47.13;26.80;;;;;;;;;;5072350;28;20500;-68
2021/12/21 06:44:37;;;;;;;47.80;25.17;;;;;;;;;;5072177;28;20027;-66
2021/12/21 06:51:09;;;;;;;39.67;24.35;;;;;;;;;;5071612;28;20024;-66
2021/12/21 06:52:38;;;;;;;39.08;20.50;;;;;;;;;;5071115;28;20078;-66
2021/12/21 06:55:05;;;;;;;28.27;14.75;;;;;;;;;;5071663;28;20021;-66
2021/12/21 06:57:31;;;;;;;20.17;8.95;;;;;;;;;;5072245;28;20131;-66
2021/12/21 06:59:58;;;;;;;10.65;4.82;;;;;;;;;;5072378;28;20017;-67
2021/12/21 07:02:24;;;;;;;14.95;7.03;;;;;;;;;;5070956;28;20036;-66
2021/12/21 07:04:51;;;;;;;22.80;12.57;;;;;;;;;;5074450;28;20469;-68
2021/12/21 07:07:17;;;;;;;40.08;20.80;;;;;;;;;;5076429;28;20024;-66
2021/12/21 07:09:47;;;;;;;41.00;20.45;;;;;;;;;;5076531;28;20505;-67
2021/12/21 07:20:10;;;;;;;20.45;11.52;;;;;;;;;;5093096;28;20043;-67
2021/12/21 07:22:36;;;;;;;30.77;16.00;;;;;;;;;;5093946;28;20044;-67
2021/12/21 07:25:03;;;;;;;40.35;19.63;;;;;;;;;;5094257;28;20040;-69
2021/12/21 07:27:29;;;;;;;39.13;16.30;;;;;;;;;;5093663;28;20091;-68
2021/12/21 07:29:55;;;;;;;29.20;14.30;;;;;;;;;;5094056;28;20024;-68
2021/12/21 07:32:22;;;;;;;29.85;14.18;;;;;;;;;;5090905;28;20104;-66
2021/12/21 07:34:48;;;;;;;205.80;117.78;;;;;;;;;;5087718;28;20009;-66
2021/12/21 07:37:14;;;;;;;56.75;32.92;;;;;;;;;;5075003;28;20024;-66
2021/12/21 07:39:40;;;;;;;56.47;31.85;;;;;;;;;;5079359;28;20024;-65
2021/12/21 07:42:07;;;;;;;47.83;24.05;;;;;;;;;;5095164;28;20032;-66
2021/12/21 07:44:33;;;;;;;28.40;16.13;;;;;;;;;;5095600;28;20035;-66
2021/12/21 07:46:59;;;;;;;28.73;15.10;;;;;;;;;;5094689;28;20020;-67
2021/12/21 07:49:26;;;;;;;30.98;14.77;;;;;;;;;;5095223;28;20048;-66
2021/12/21 07:51:52;;;;;;;35.75;17.70;;;;;;;;;;5095286;28;20499;-68
2021/12/21 07:54:18;;;;;;;40.22;19.30;;;;;;;;;;5094517;28;20091;-68
2021/12/21 07:56:45;;;;;;;26.15;12.90;;;;;;;;;;5093865;28;20024;-72
2021/12/21 07:59:15;;;;;;;20.00;10.07;;;;;;;;;;5095529;28;20500;-66
2021/12/21 08:01:41;;;;;;;20.33;9.77;;;;;;;;;;5093859;28;20129;-67
2021/12/21 08:04:08;;;;;;;18.65;10.88;;;;;;;;;;5092647;28;20059;-68
2021/12/21 08:06:35;;;;;;;16.23;8.75;;;;;;;;;;5090146;28;20099;-67
2021/12/21 08:09:03;;;;;;;13.48;7.13;;;;;;;;;;5094082;28;20049;-66
2021/12/21 08:14:02;;;;;;;13.23;7.60;;;;;;;;;;5095114;28;20407;-65
2021/12/21 08:16:28;;;;;;;19.02;10.10;;;;;;;;;;5093154;28;20476;-66
2021/12/21 08:18:55;;;;;;;27.75;15.07;;;;;;;;;;5095233;28;20039;-67
2021/12/21 08:21:23;;;;;;;17.92;10.00;;;;;;;;;;5094169;28;20127;-66
2021/12/21 08:23:49;;;;;;;21.70;11.52;;;;;;;;;;5093591;28;20023;-67
2021/12/21 08:26:16;;;;;;;17.55;9.60;;;;;;;;;;5094939;28;20357;-66
2021/12/21 08:28:42;;;;;;;19.15;9.27;;;;;;;;;;5091583;28;20491;-66
2021/12/21 08:31:12;;;;;;;26.40;12.93;;;;;;;;;;5083538;28;20027;-67
2021/12/21 08:33:38;;;;;;;24.38;12.65;;;;;;;;;;5077658;28;20078;-66
2021/12/21 08:36:05;;;;;;;23.65;10.25;;;;;;;;;;5072639;28;20059;-66
2021/12/21 08:38:32;;;;;;;20.90;8.73;;;;;;;;;;5071546;28;20031;-66
2021/12/21 08:40:59;;;;;;;21.30;8.75;;;;;;;;;;5072484;28;20610;-66
2021/12/21 08:43:28;;;;;;;17.85;8.70;;;;;;;;;;5072166;28;20032;-66
2021/12/21 08:45:56;;;;;;;19.65;9.38;;;;;;;;;;5074080;28;20078;-66
2021/12/21 08:48:23;;;;;;;15.40;6.95;;;;;;;;;;5074258;28;20477;-67
2021/12/21 08:50:52;;;;;;;15.13;6.68;;;;;;;;;;5074216;28;20024;-66
2021/12/21 08:53:19;;;;;;;17.98;10.00;;;;;;;;;;5074049;28;20103;-66
2021/12/21 08:55:45;;;;;;;15.32;7.78;;;;;;;;;;5073001;28;20077;-68
2021/12/21 08:58:12;;;;;;;18.42;7.85;;;;;;;;;;5073622;28;20095;-67
2021/12/21 09:00:40;;;;;;;14.10;6.18;;;;;;;;;;5073999;28;20099;-69
2021/12/21 09:03:06;;;;;;;18.65;7.22;;;;;;;;;;5072454;28;20396;-69
2021/12/21 09:05:33;;;;;;;19.52;9.35;;;;;;;;;;5072034;28;20029;-69
2021/12/21 09:08:00;;;;;;;17.98;9.18;;;;;;;;;;5073546;28;20362;-67
2021/12/21 09:10:27;;;;;;;15.25;7.28;;;;;;;;;;5073983;28;20031;-67
2021/12/21 09:12:54;;;;;;;13.82;6.43;;;;;;;;;;5073410;28;20400;-67
2021/12/21 09:15:22;;;;;;;19.45;9.00;;;;;;;;;;5073708;28;20036;-68
2021/12/21 09:17:48;;;;;;;13.40;7.22;;;;;;;;;;5087762;28;20020;-70
2021/12/21 09:20:16;;;;;;;14.93;6.07;;;;;;;;;;5093360;28;20027;-68
2021/12/21 09:22:43;;;;;;;14.80;7.10;;;;;;;;;;5069889;28;20053;-69
2021/12/21 09:25:11;;;;;;;14.02;6.72;;;;;;;;;;5090107;28;20475;-68
2021/12/21 09:27:38;;;;;;;10.60;4.70;;;;;;;;;;5093453;28;20031;-69
2021/12/21 09:30:05;;;;;;;11.75;4.68;;;;;;;;;;5091469;28;20028;-68
2021/12/21 09:32:31;;;;;;;7.03;4.03;;;;;;;;;;5093133;28;20024;-69
2021/12/21 09:34:58;;;;;;;8.93;4.13;;;;;;;;;;5093134;28;20031;-68
2021/12/21 09:37:25;;;;;;;8.27;4.45;;;;;;;;;;5092648;28;20544;-66
2021/12/21 09:39:54;;;;;;;15.70;6.95;;;;;;;;;;5090029;28;20488;-67
2021/12/21 09:42:24;;;;;;;12.32;5.50;;;;;;;;;;5079366;28;20040;-67
2021/12/21 09:44:51;;;;;;;10.10;4.95;;;;;;;;;;5071813;28;20468;-67
2021/12/21 09:47:17;;;;;;;8.52;3.72;;;;;;;;;;5070972;28;20104;-67
2021/12/21 09:49:44;;;;;;;7.38;3.05;;;;;;;;;;5069308;28;20431;-67
2021/12/21 09:52:12;;;;;;;11.25;4.97;;;;;;;;;;5070180;28;20024;-66
2021/12/21 09:54:38;;;;;;;10.88;4.47;;;;;;;;;;5069333;28;20035;-67
2021/12/21 09:57:05;;;;;;;9.57;4.10;;;;;;;;;;5085130;28;20027;-68
2021/12/21 09:59:31;;;;;;;9.98;3.85;;;;;;;;;;5091330;28;20107;-67
2021/12/21 10:01:58;;;;;;;8.55;3.80;;;;;;;;;;5090805;28;20591;-69
2021/12/21 10:04:28;;;;;;;11.68;5.50;;;;;;;;;;5091887;28;20016;-69
2021/12/21 10:06:55;;;;;;;11.13;4.82;;;;;;;;;;5092460;28;20027;-67
2021/12/21 10:09:23;;;;;;;11.68;4.35;;;;;;;;;;5091602;28;20392;-67
2021/12/21 10:11:50;;;;;;;16.83;6.93;;;;;;;;;;5091914;28;20027;-70
2021/12/21 10:14:17;;;;;;;17.35;9.43;;;;;;;;;;5092200;28;20069;-68
2021/12/21 10:16:45;;;;;;;14.30;7.10;;;;;;;;;;5091045;28;20430;-68
2021/12/21 10:19:24;;;;;;;14.80;7.05;;;;;;;;;;5087813;28;20469;-69
2021/12/21 10:21:50;;;;;;;15.52;7.93;;;;;;;;;;5079386;28;20101;-69
2021/12/21 10:24:26;;;;;;;11.30;5.45;;;;;;;;;;5072711;28;20025;-68
2021/12/21 10:26:53;;;;;;;14.40;6.82;;;;;;;;;;5084061;28;20027;-68
2021/12/21 10:29:20;;;;;;;10.25;5.30;;;;;;;;;;5090444;28;20113;-69
2021/12/21 10:31:48;;;;;;;11.27;5.53;;;;;;;;;;5086427;28;20053;-71
2021/12/21 10:34:17;;;;;;;12.35;6.68;;;;;;;;;;5093015;28;20073;-72
2021/12/21 10:36:49;;;;;;;11.35;6.28;;;;;;;;;;5091908;28;20043;-71
2021/12/21 10:39:22;;;;;;;14.13;5.70;;;;;;;;;;5095204;28;20372;-75
2021/12/21 10:41:48;;;;;;;10.73;4.82;;;;;;;;;;5094884;28;20366;-70
2021/12/21 10:44:16;;;;;;;5.72;3.47;;;;;;;;;;5092894;28;20043;-74
2021/12/21 10:46:49;;;;;;;13.13;6.18;;;;;;;;;;5093296;28;20065;-72
2021/12/21 10:49:15;;;;;;;;;;;;;;;;;;5087361;28;20029;-71
2021/12/21 10:51:58;;;;;;;12.45;5.70;;;;;;;;;;5073153;28;19912;-71
2021/12/21 10:54:40;;;;;;;13.03;5.13;;;;;;;;;;5074279;28;20082;-73
2021/12/21 10:57:11;;;;;;;9.57;5.32;;;;;;;;;;5074103;28;20705;-70
2021/12/21 10:59:41;;;;;;;14.05;6.75;;;;;;;;;;5074541;28;20024;-69
2021/12/21 11:02:18;;;;;;;8.88;4.30;;;;;;;;;;5075464;28;20040;-71
2021/12/21 11:04:51;;;;;;;10.95;5.57;;;;;;;;;;5094868;28;20024;-71
2021/12/21 11:07:29;;;;;;;13.02;7.13;;;;;;;;;;5095689;28;20421;-68
2021/12/21 11:09:57;;;;;;;9.57;4.57;;;;;;;;;;5095488;28;20035;-68
2021/12/21 11:12:25;;;;;;;10.88;5.38;;;;;;;;;;5095515;28;20028;-69
2021/12/21 11:14:53;;;;;;;15.57;8.30;;;;;;;;;;5094657;28;20024;-68
2021/12/21 11:17:21;;;;;;;13.30;7.18;;;;;;;;;;5095303;28;20087;-71
2021/12/21 11:19:47;;;;;;;11.45;5.93;;;;;;;;;;5095722;28;20149;-69
2021/12/21 11:22:14;;;;;;;10.00;5.28;;;;;;;;;;5094301;28;20128;-71
2021/12/21 11:24:40;;;;;;;12.23;5.80;;;;;;;;;;5095216;28;20031;-69
2021/12/21 11:27:07;;;;;;;10.82;5.97;;;;;;;;;;5095202;28;20075;-69
2021/12/21 11:29:34;;;;;;;12.52;6.78;;;;;;;;;;5095603;28;20028;-67
2021/12/21 11:32:03;;;;;;;18.50;9.73;;;;;;;;;;5095053;28;20021;-67
2021/12/21 11:34:34;;;;;;;17.48;10.10;;;;;;;;;;5096118;28;20032;-67
2021/12/21 11:39:45;;;;;;;20.20;11.20;;;;;;;;;;5093306;28;20035;-69
2021/12/21 11:42:18;;;;;;;28.13;14.65;;;;;;;;;;5095213;28;20101;-68
2021/12/21 11:44:50;;;;;;;20.52;11.10;;;;;;;;;;5093831;28;20020;-68
2021/12/21 11:47:18;;;;;;;17.73;9.87;;;;;;;;;;5093377;28;20123;-69
2021/12/21 11:49:50;;;;;;;13.75;6.03;;;;;;;;;;5094006;28;20557;-67
2021/12/21 11:52:27;;;;;;;16.95;7.82;;;;;;;;;;5093851;28;20040;-66
2021/12/21 11:54:56;;;;;;;20.45;8.40;;;;;;;;;;5095144;28;20069;-69
2021/12/21 11:57:42;;;;;;;15.23;7.18;;;;;;;;;;5095654;28;20060;-69
2021/12/21 12:00:14;;;;;;;17.30;7.75;;;;;;;;;;5093881;28;20090;-70
2021/12/21 12:02:41;;;;;;;22.67;11.63;;;;;;;;;;5095372;28;20032;-70
2021/12/21 12:05:25;;;;;;;19.67;8.20;;;;;;;;;;5095056;28;20020;-68
2021/12/21 12:08:08;;;;;;;24.10;12.60;;;;;;;;;;5094182;28;20090;-70
2021/12/21 12:10:37;;;;;;;12.93;7.10;;;;;;;;;;5095636;28;20476;-68
2021/12/21 12:13:11;;;;;;;15.35;7.50;;;;;;;;;;5095021;28;20287;-67
2021/12/21 12:15:48;;;;;;;14.82;7.80;;;;;;;;;;5094437;28;20667;-70
2021/12/21 12:18:22;;;;;;;30.25;16.20;;;;;;;;;;5094709;28;20032;-69
2021/12/21 12:20:48;;;;;;;22.65;9.88;;;;;;;;;;5094405;28;20024;-67
2021/12/21 12:23:16;;;;;;;16.35;8.85;;;;;;;;;;5094768;28;20036;-69
2021/12/21 12:25:50;;;;;;;12.90;6.75;;;;;;;;;;5095009;28;20050;-68
2021/12/21 12:28:24;;;;;;;14.88;7.75;;;;;;;;;;5088485;28;20028;-68
2021/12/21 12:30:51;;;;;;;12.55;6.90;;;;;;;;;;5093340;28;20028;-69
2021/12/21 12:33:18;;;;;;;18.35;10.10;;;;;;;;;;5095063;28;20024;-70
2021/12/21 12:35:44;;;;;;;18.63;9.63;;;;;;;;;;5094225;28;20012;-71
2021/12/21 12:38:17;;;;;;;11.82;6.10;;;;;;;;;;5094926;28;20024;-69
2021/12/21 12:41:04;;;;;;;14.15;6.55;;;;;;;;;;5091808;28;20020;-68
2021/12/21 12:43:32;;;;;;;10.00;4.72;;;;;;;;;;5094193;28;20397;-68
2021/12/21 12:46:05;;;;;;;9.02;5.00;;;;;;;;;;5093655;28;20132;-68
2021/12/21 12:48:41;;;;;;;13.20;6.50;;;;;;;;;;5086347;28;20022;-68
2021/12/21 12:51:09;;;;;;;12.73;6.30;;;;;;;;;;5094130;28;20044;-68
2021/12/21 12:53:40;;;;;;;11.88;5.72;;;;;;;;;;5093804;28;20099;-68
2021/12/21 12:56:07;;;;;;;13.07;6.32;;;;;;;;;;5072672;28;20047;-67
2021/12/21 12:58:35;;;;;;;11.63;5.70;;;;;;;;;;5073153;28;20392;-68
2021/12/21 13:01:07;;;;;;;14.63;7.70;;;;;;;;;;5092638;28;20093;-70
2021/12/21 13:03:33;;;;;;;30.08;15.45;;;;;;;;;;5073006;28;20111;-69
2021/12/21 13:06:01;;;;;;;17.00;7.97;;;;;;;;;;5093274;28;20071;-70
2021/12/21 13:08:28;;;;;;;15.55;8.27;;;;;;;;;;5093656;28;20016;-71
2021/12/21 13:11:00;;;;;;;11.05;6.22;;;;;;;;;;5092954;28;20023;-67
2021/12/21 13:13:40;;;;;;;15.37;8.93;;;;;;;;;;5094160;28;20031;-69
2021/12/21 13:16:08;;;;;;;13.82;8.02;;;;;;;;;;5094145;28;20331;-71
2021/12/21 13:18:38;;;;;;;12.30;6.18;;;;;;;;;;5093511;28;20028;-71
2021/12/21 13:21:04;;;;;;;13.05;6.85;;;;;;;;;;5093960;28;20036;-70
2021/12/21 13:23:31;;;;;;;11.57;5.82;;;;;;;;;;5094069;28;20042;-67
2021/12/21 13:26:01;;;;;;;9.38;5.25;;;;;;;;;;5093721;28;20467;-68
2021/12/21 13:28:28;;;;;;;8.80;4.80;;;;;;;;;;5094025;28;20024;-68
2021/12/21 13:30:57;;;;;;;10.90;5.00;;;;;;;;;;5094061;28;20020;-69
2021/12/21 13:33:25;;;;;;;14.35;7.43;;;;;;;;;;5093737;28;20103;-68
2021/12/21 13:35:51;;;;;;;17.00;9.38;;;;;;;;;;5093829;28;20016;-68
2021/12/21 13:38:52;;;;;;;15.10;8.65;;;;;;;;;;5110572;27;20517;-69
2021/12/21 13:41:18;;;;;;;13.00;7.07;;;;;;;;;;5110955;28;20027;-68
2021/12/21 13:43:54;;;;;;;16.35;9.50;;;;;;;;;;5109287;28;20163;-69
2021/12/21 13:46:20;;;;;;;19.13;11.98;;;;;;;;;;5108533;28;20020;-67
2021/12/21 13:50:36;;;;;;;26.42;12.55;;;;;;;;;;5111178;27;20389;-72
2021/12/21 13:55:29;;;;;;;23.63;11.05;;;;;;;;;;5110060;27;20392;-72
2021/12/21 13:58:41;;;;;;;16.13;8.52;;;;;;;;;;5110637;27;20389;-72
2021/12/21 14:01:08;;;;;;;15.02;7.63;;;;;;;;;;5110007;28;20391;-70
2021/12/21 14:03:44;;;;;;;18.02;8.48;;;;;;;;;;5107967;28;20024;-73
2021/12/21 14:07:05;;;;;;;12.68;6.53;;;;;;;;;;5108230;27;20388;-74
2021/12/21 14:09:32;;;;;;;14.15;7.45;;;;;;;;;;5107347;28;20024;-73
2021/12/21 14:11:58;;;;;;;20.67;12.48;;;;;;;;;;5108289;28;20016;-73
2021/12/21 14:15:10;;;;;;;19.88;10.52;;;;;;;;;;5110122;27;20397;-72
2021/12/21 14:20:22;;;;;;;18.20;9.52;;;;;;;;;;5110669;27;20446;-72
2021/12/21 14:22:50;;;;;;;22.00;13.40;;;;;;;;;;5110832;28;20027;-72
2021/12/21 14:25:20;;;;;;;32.10;17.38;;;;;;;;;;5111348;28;20372;-72
2021/12/21 14:28:45;;;;;;;18.33;11.25;;;;;;;;;;5111053;27;20385;-73
2021/12/21 14:31:13;;;;;;;17.52;10.50;;;;;;;;;;5111106;28;20085;-73
2021/12/21 14:33:49;;;;;;;21.77;11.60;;;;;;;;;;5111145;28;20090;-73
2021/12/21 14:36:18;;;;;;;16.35;9.80;;;;;;;;;;5110713;28;20028;-73
2021/12/21 14:39:57;;;;;;;21.20;11.98;;;;;;;;;;5111324;27;20397;-72
2021/12/21 14:42:25;;;;;;;22.58;13.32;;;;;;;;;;5110829;28;20024;-72
2021/12/21 14:45:50;;;;;;;25.45;14.43;;;;;;;;;;5110477;27;20396;-72
2021/12/21 14:48:17;;;;;;;35.67;18.10;;;;;;;;;;5108391;28;20430;-73
2021/12/21 14:50:48;;;;;;;34.33;19.67;;;;;;;;;;5107121;28;20028;-74
2021/12/21 14:53:20;;;;;;;33.38;17.67;;;;;;;;;;5108192;28;20023;-71
2021/12/21 14:55:47;;;;;;;30.83;16.67;;;;;;;;;;5108578;28;20446;-72
2021/12/21 14:58:17;;;;;;;35.60;20.33;;;;;;;;;;5108899;28;20026;-72
2021/12/21 15:00:49;;;;;;;31.83;18.35;;;;;;;;;;5107618;28;20048;-72
2021/12/21 15:03:19;;;;;;;31.13;19.23;;;;;;;;;;5110194;28;20024;-72
2021/12/21 15:05:45;;;;;;;31.15;19.65;;;;;;;;;;5110947;28;20046;-72
2021/12/21 15:08:13;;;;;;;22.88;15.30;;;;;;;;;;5111340;28;20012;-73
2021/12/21 15:10:42;;;;;;;31.40;18.15;;;;;;;;;;5110152;28;20024;-72
2021/12/21 15:13:08;;;;;;;31.60;18.35;;;;;;;;;;5110654;28;20379;-71
2021/12/21 15:15:35;;;;;;;33.03;21.27;;;;;;;;;;5110570;28;20532;-71
2021/12/21 15:18:01;;;;;;;53.38;30.42;;;;;;;;;;5108747;28;20032;-72
2021/12/21 15:20:28;;;;;;;63.80;36.08;;;;;;;;;;5110472;28;20023;-72
2021/12/21 15:22:54;;;;;;;74.28;42.80;;;;;;;;;;5110542;28;20046;-71
2021/12/21 15:25:21;;;;;;;83.75;46.60;;;;;;;;;;5109955;28;20459;-71
2021/12/21 15:27:48;;;;;;;78.32;45.92;;;;;;;;;;5110512;28;20127;-72
2021/12/21 15:30:15;;;;;;;63.67;38.72;;;;;;;;;;5110212;28;20488;-71
2021/12/21 15:32:42;;;;;;;60.90;34.22;;;;;;;;;;5109837;28;20022;-72
2021/12/21 15:35:08;;;;;;;51.03;26.77;;;;;;;;;;5108933;28;20491;-72
2021/12/21 15:37:35;;;;;;;42.03;23.50;;;;;;;;;;5107180;28;20023;-73
2021/12/21 15:40:01;;;;;;;41.75;20.50;;;;;;;;;;5109084;28;20033;-74